sensor_id;sensor_type;location;lat;lon;timestamp;pressure;altitude;pressure_sealevel;temperature;humidity
76060;BME280;64759;52.220;5.170;2023-03-25T00:02:14;100016.78;;;10.50;70.15
76060;BME280;64759;52.220;5.170;2023-03-25T00:04:41;100007.88;;;10.45;71.01
76060;BME280;64759;52.220;5.170;2023-03-25T00:07:06;100012.56;;;10.41;70.97
76060;BME280;64759;52.220;5.170;2023-03-25T00:09:32;100005.75;;;10.32;71.92
76060;BME280;64759;52.220;5.170;2023-03-25T00:11:57;100010.59;;;10.35;71.55
76060;BME280;64759;52.220;5.170;2023-03-25T00:14:22;100009.47;;;10.30;72.03
76060;BME280;64759;52.220;5.170;2023-03-25T00:16:49;100006.22;;;10.28;72.23
76060;BME280;64759;52.220;5.170;2023-03-25T00:19:18;100012.84;;;10.22;72.65
76060;BME280;64759;52.220;5.170;2023-03-25T00:21:46;100018.50;;;10.18;73.09
76060;BME280;64759;52.220;5.170;2023-03-25T00:24:15;99999.59;;;10.25;72.63
76060;BME280;64759;52.220;5.170;2023-03-25T00:26:44;100010.25;;;10.22;71.92
76060;BME280;64759;52.220;5.170;2023-03-25T00:29:11;100006.22;;;10.28;72.15
76060;BME280;64759;52.220;5.170;2023-03-25T00:31:38;100010.44;;;10.29;72.01
76060;BME280;64759;52.220;5.170;2023-03-25T00:34:04;100009.81;;;10.27;71.86
76060;BME280;64759;52.220;5.170;2023-03-25T00:36:29;100008.66;;;10.21;71.07
76060;BME280;64759;52.220;5.170;2023-03-25T00:38:55;100011.72;;;10.25;71.64
76060;BME280;64759;52.220;5.170;2023-03-25T00:41:23;100019.97;;;10.28;71.18
76060;BME280;64759;52.220;5.170;2023-03-25T00:43:56;100008.81;;;10.28;71.23
76060;BME280;64759;52.220;5.170;2023-03-25T00:46:23;100005.91;;;10.31;70.80
76060;BME280;64759;52.220;5.170;2023-03-25T00:48:51;100006.41;;;10.26;71.36
76060;BME280;64759;52.220;5.170;2023-03-25T00:51:17;99997.16;;;10.24;71.28
76060;BME280;64759;52.220;5.170;2023-03-25T00:53:46;100008.00;;;10.27;71.21
76060;BME280;64759;52.220;5.170;2023-03-25T00:56:12;100012.69;;;10.24;70.88
76060;BME280;64759;52.220;5.170;2023-03-25T00:58:58;100006.72;;;10.23;70.73
76060;BME280;64759;52.220;5.170;2023-03-25T01:01:26;100004.59;;;10.19;71.37
76060;BME280;64759;52.220;5.170;2023-03-25T01:03:54;100006.69;;;10.15;71.43
76060;BME280;64759;52.220;5.170;2023-03-25T01:06:34;99999.91;;;10.22;70.87
76060;BME280;64759;52.220;5.170;2023-03-25T01:09:03;100004.75;;;10.25;71.36
76060;BME280;64759;52.220;5.170;2023-03-25T01:11:31;100008.66;;;10.21;70.99
76060;BME280;64759;52.220;5.170;2023-03-25T01:13:59;100001.53;;;10.23;70.76
76060;BME280;64759;52.220;5.170;2023-03-25T01:16:26;100003.81;;;10.26;70.73
76060;BME280;64759;52.220;5.170;2023-03-25T01:18:53;100004.75;;;10.25;70.62
76060;BME280;64759;52.220;5.170;2023-03-25T01:21:18;99999.75;;;10.24;70.78
76060;BME280;64759;52.220;5.170;2023-03-25T01:23:44;99995.84;;;10.20;70.76
76060;BME280;64759;52.220;5.170;2023-03-25T01:26:10;99990.78;;;10.10;71.35
76060;BME280;64759;52.220;5.170;2023-03-25T01:28:39;99988.44;;;10.17;71.53
76060;BME280;64759;52.220;5.170;2023-03-25T01:31:06;99993.25;;;10.12;72.21
76060;BME280;64759;52.220;5.170;2023-03-25T01:33:33;99992.94;;;10.15;71.95
76060;BME280;64759;52.220;5.170;2023-03-25T01:36:00;99991.16;;;10.15;71.87
76060;BME280;64759;52.220;5.170;2023-03-25T01:38:27;99983.69;;;10.12;72.16
76060;BME280;64759;52.220;5.170;2023-03-25T01:40:55;99998.72;;;10.09;72.41
76060;BME280;64759;52.220;5.170;2023-03-25T01:43:20;99995.97;;;10.10;72.75
76060;BME280;64759;52.220;5.170;2023-03-25T01:45:46;99995.97;;;10.02;73.90
76060;BME280;64759;52.220;5.170;2023-03-25T01:48:21;99992.19;;;9.88;75.08
76060;BME280;64759;52.220;5.170;2023-03-25T01:50:54;99994.28;;;9.85;75.57
76060;BME280;64759;52.220;5.170;2023-03-25T01:53:21;100001.84;;;9.78;76.31
76060;BME280;64759;52.220;5.170;2023-03-25T01:55:47;99992.25;;;9.63;76.47
76060;BME280;64759;52.220;5.170;2023-03-25T01:58:17;100000.03;;;9.71;76.58
76060;BME280;64759;52.220;5.170;2023-03-25T02:00:44;99994.69;;;9.64;77.12
76060;BME280;64759;52.220;5.170;2023-03-25T02:03:12;99999.66;;;9.58;77.54
76060;BME280;64759;52.220;5.170;2023-03-25T02:05:52;100001.09;;;9.52;78.21
76060;BME280;64759;52.220;5.170;2023-03-25T02:08:20;99993.94;;;9.46;78.29
76060;BME280;64759;52.220;5.170;2023-03-25T02:10:46;99986.84;;;9.48;78.66
76060;BME280;64759;52.220;5.170;2023-03-25T02:13:12;99989.53;;;9.39;78.32
76060;BME280;64759;52.220;5.170;2023-03-25T02:18:50;99992.03;;;9.48;78.33
76060;BME280;64759;52.220;5.170;2023-03-25T02:26:50;99978.59;;;9.45;77.80
76060;BME280;64759;52.220;5.170;2023-03-25T02:35:14;99987.34;;;9.52;78.42
76060;BME280;64759;52.220;5.170;2023-03-25T02:43:09;99985.56;;;9.52;77.63
76060;BME280;64759;52.220;5.170;2023-03-25T02:45:43;99971.66;;;9.53;77.98
76060;BME280;64759;52.220;5.170;2023-03-25T02:48:17;99983.28;;;9.49;77.53
76060;BME280;64759;52.220;5.170;2023-03-25T02:50:54;99971.97;;;9.42;78.01
76060;BME280;64759;52.220;5.170;2023-03-25T02:53:32;99974.13;;;9.55;78.14
76060;BME280;64759;52.220;5.170;2023-03-25T02:56:03;99982.53;;;9.57;78.06
76060;BME280;64759;52.220;5.170;2023-03-25T02:58:30;99965.56;;;9.54;77.60
76060;BME280;64759;52.220;5.170;2023-03-25T03:00:57;99960.84;;;9.50;77.83
76060;BME280;64759;52.220;5.170;2023-03-25T03:03:24;99952.16;;;9.51;78.01
76060;BME280;64759;52.220;5.170;2023-03-25T03:05:56;99958.91;;;9.52;78.37
76060;BME280;64759;52.220;5.170;2023-03-25T03:11:27;99944.88;;;9.54;77.98
76060;BME280;64759;52.220;5.170;2023-03-25T03:14:22;99954.22;;;9.47;78.44
76060;BME280;64759;52.220;5.170;2023-03-25T03:24:46;99952.75;;;9.45;78.75
76060;BME280;64759;52.220;5.170;2023-03-25T03:32:41;99947.13;;;9.49;78.84
76060;BME280;64759;52.220;5.170;2023-03-25T03:38:11;99930.25;;;9.37;79.06
76060;BME280;64759;52.220;5.170;2023-03-25T03:40:40;99927.38;;;9.40;79.51
76060;BME280;64759;52.220;5.170;2023-03-25T03:43:14;99933.97;;;9.35;79.54
76060;BME280;64759;52.220;5.170;2023-03-25T03:45:49;99931.09;;;9.38;79.37
76060;BME280;64759;52.220;5.170;2023-03-25T03:48:21;99940.66;;;9.45;78.96
76060;BME280;64759;52.220;5.170;2023-03-25T03:51:05;99939.47;;;9.40;79.39
76060;BME280;64759;52.220;5.170;2023-03-25T03:53:36;99936.91;;;9.40;79.24
76060;BME280;64759;52.220;5.170;2023-03-25T03:56:07;99934.47;;;9.38;78.73
76060;BME280;64759;52.220;5.170;2023-03-25T03:58:37;99924.81;;;9.40;79.02
76060;BME280;64759;52.220;5.170;2023-03-25T04:01:40;99943.19;;;9.37;79.41
76060;BME280;64759;52.220;5.170;2023-03-25T04:04:19;99935.59;;;9.36;80.40
76060;BME280;64759;52.220;5.170;2023-03-25T04:07:00;99944.25;;;9.27;81.23
76060;BME280;64759;52.220;5.170;2023-03-25T04:09:36;99946.94;;;9.17;81.26
76060;BME280;64759;52.220;5.170;2023-03-25T04:12:25;99951.16;;;9.18;82.05
76060;BME280;64759;52.220;5.170;2023-03-25T04:14:54;99951.28;;;9.08;82.99
76060;BME280;64759;52.220;5.170;2023-03-25T04:17:21;99949.16;;;9.04;82.94
76060;BME280;64759;52.220;5.170;2023-03-25T04:19:46;99947.41;;;9.12;82.69
76060;BME280;64759;52.220;5.170;2023-03-25T04:22:16;99945.47;;;9.06;82.87
76060;BME280;64759;52.220;5.170;2023-03-25T04:24:43;99939.97;;;9.09;82.67
76060;BME280;64759;52.220;5.170;2023-03-25T04:27:08;99945.28;;;9.08;82.79
76060;BME280;64759;52.220;5.170;2023-03-25T04:29:38;99935.44;;;9.03;82.75
76060;BME280;64759;52.220;5.170;2023-03-25T04:32:05;99942.25;;;9.12;82.25
76060;BME280;64759;52.220;5.170;2023-03-25T04:34:30;99936.66;;;8.99;79.96
76060;BME280;64759;52.220;5.170;2023-03-25T04:36:56;99950.69;;;8.97;81.47
76060;BME280;64759;52.220;5.170;2023-03-25T04:39:21;99947.69;;;9.01;82.78
76060;BME280;64759;52.220;5.170;2023-03-25T04:41:51;99958.13;;;8.92;83.07
76060;BME280;64759;52.220;5.170;2023-03-25T04:44:26;99951.03;;;8.94;83.11
76060;BME280;64759;52.220;5.170;2023-03-25T04:46:53;99956.47;;;8.91;83.06
76060;BME280;64759;52.220;5.170;2023-03-25T04:49:21;99955.38;;;8.93;83.36
76060;BME280;64759;52.220;5.170;2023-03-25T04:51:48;99956.84;;;8.96;83.70
76060;BME280;64759;52.220;5.170;2023-03-25T04:54:16;99966.81;;;8.91;84.05
76060;BME280;64759;52.220;5.170;2023-03-25T04:56:42;99955.53;;;8.92;nan
76060;BME280;64759;52.220;5.170;2023-03-25T04:59:07;99959.88;;;8.91;83.90
76060;BME280;64759;52.220;5.170;2023-03-25T05:01:36;99954.19;;;8.88;83.65
76060;BME280;64759;52.220;5.170;2023-03-25T05:04:07;99959.88;;;8.91;83.92
76060;BME280;64759;52.220;5.170;2023-03-25T05:06:35;99960.06;;;8.98;83.52
76060;BME280;64759;52.220;5.170;2023-03-25T05:09:03;99956.84;;;8.96;83.56
76060;BME280;64759;52.220;5.170;2023-03-25T05:11:29;99949.75;;;8.98;83.29
76060;BME280;64759;52.220;5.170;2023-03-25T05:13:55;99946.94;;;9.09;82.19
76060;BME280;64759;52.220;5.170;2023-03-25T05:16:21;99952.88;;;9.09;82.53
76060;BME280;64759;52.220;5.170;2023-03-25T05:18:47;99954.00;;;9.07;81.90
76060;BME280;64759;52.220;5.170;2023-03-25T05:21:12;99956.09;;;9.03;82.31
76060;BME280;64759;52.220;5.170;2023-03-25T05:23:38;99955.47;;;9.09;81.25
76060;BME280;64759;52.220;5.170;2023-03-25T05:26:04;99960.16;;;9.14;80.88
76060;BME280;64759;52.220;5.170;2023-03-25T05:28:30;99970.00;;;9.10;80.50
76060;BME280;64759;52.220;5.170;2023-03-25T05:30:55;99971.31;;;9.14;79.87
76060;BME280;64759;52.220;5.170;2023-03-25T05:33:21;99980.22;;;9.20;79.63
76060;BME280;64759;52.220;5.170;2023-03-25T05:35:47;99974.34;;;9.10;78.53
76060;BME280;64759;52.220;5.170;2023-03-25T05:38:13;99987.16;;;9.19;78.42
76060;BME280;64759;52.220;5.170;2023-03-25T05:40:46;99969.09;;;9.19;78.35
76060;BME280;64759;52.220;5.170;2023-03-25T05:43:13;99968.88;;;9.13;77.92
76060;BME280;64759;52.220;5.170;2023-03-25T05:45:40;99979.28;;;9.21;77.72
76060;BME280;64759;52.220;5.170;2023-03-25T05:48:06;99979.75;;;9.25;77.27
76060;BME280;64759;52.220;5.170;2023-03-25T05:50:32;99982.88;;;9.28;77.42
76060;BME280;64759;52.220;5.170;2023-03-25T05:52:58;99994.56;;;9.14;77.54
76060;BME280;64759;52.220;5.170;2023-03-25T05:55:24;99985.59;;;9.27;77.09
76060;BME280;64759;52.220;5.170;2023-03-25T05:57:50;99987.31;;;9.18;76.86
76060;BME280;64759;52.220;5.170;2023-03-25T06:00:16;99996.19;;;9.15;77.28
76060;BME280;64759;52.220;5.170;2023-03-25T06:02:44;99987.53;;;9.25;76.58
76060;BME280;64759;52.220;5.170;2023-03-25T06:05:11;99994.09;;;9.19;77.03
76060;BME280;64759;52.220;5.170;2023-03-25T06:07:44;99986.31;;;9.11;77.25
76060;BME280;64759;52.220;5.170;2023-03-25T06:10:13;100003.47;;;9.20;76.92
76060;BME280;64759;52.220;5.170;2023-03-25T06:12:41;99987.47;;;9.16;76.75
76060;BME280;64759;52.220;5.170;2023-03-25T06:15:09;99990.44;;;9.30;76.92
76060;BME280;64759;52.220;5.170;2023-03-25T06:17:35;99996.31;;;9.40;76.49
76060;BME280;64759;52.220;5.170;2023-03-25T06:20:09;99989.34;;;9.32;77.10
76060;BME280;64759;52.220;5.170;2023-03-25T06:22:44;100002.41;;;9.31;78.00
76060;BME280;64759;52.220;5.170;2023-03-25T06:25:12;100000.25;;;9.18;78.09
76060;BME280;64759;52.220;5.170;2023-03-25T06:27:38;100008.13;;;9.16;78.58
76060;BME280;64759;52.220;5.170;2023-03-25T06:30:12;100007.94;;;9.10;79.32
76060;BME280;64759;52.220;5.170;2023-03-25T06:32:37;100003.03;;;8.99;80.03
76060;BME280;64759;52.220;5.170;2023-03-25T06:35:07;100004.91;;;8.97;80.51
76060;BME280;64759;52.220;5.170;2023-03-25T06:37:33;100011.81;;;8.88;81.08
76060;BME280;64759;52.220;5.170;2023-03-25T06:40:04;100008.13;;;8.91;81.41
76060;BME280;64759;52.220;5.170;2023-03-25T06:42:33;100019.56;;;8.88;82.09
76060;BME280;64759;52.220;5.170;2023-03-25T06:45:25;100008.34;;;8.80;81.36
76060;BME280;64759;52.220;5.170;2023-03-25T06:48:02;100008.66;;;8.77;81.90
76060;BME280;64759;52.220;5.170;2023-03-25T06:50:27;100017.25;;;8.85;81.62
76060;BME280;64759;52.220;5.170;2023-03-25T06:52:53;100010.78;;;8.81;81.99
76060;BME280;64759;52.220;5.170;2023-03-25T06:55:18;100012.34;;;8.92;81.53
76060;BME280;64759;52.220;5.170;2023-03-25T06:57:44;100014.09;;;8.91;81.30
76060;BME280;64759;52.220;5.170;2023-03-25T07:00:10;100014.81;;;9.01;80.83
76060;BME280;64759;52.220;5.170;2023-03-25T07:02:37;100017.25;;;9.03;80.04
76060;BME280;64759;52.220;5.170;2023-03-25T07:05:03;100008.56;;;9.12;80.17
76060;BME280;64759;52.220;5.170;2023-03-25T07:07:29;100013.63;;;9.13;79.10
76060;BME280;64759;52.220;5.170;2023-03-25T07:09:54;100013.28;;;9.16;79.29
76060;BME280;64759;52.220;5.170;2023-03-25T07:12:21;100023.78;;;9.15;79.32
76060;BME280;64759;52.220;5.170;2023-03-25T07:14:51;100006.94;;;9.29;78.57
76060;BME280;64759;52.220;5.170;2023-03-25T07:17:16;100016.59;;;9.27;77.57
76060;BME280;64759;52.220;5.170;2023-03-25T07:19:42;100022.28;;;9.30;76.46
76060;BME280;64759;52.220;5.170;2023-03-25T07:22:08;100017.16;;;9.38;76.89
76060;BME280;64759;52.220;5.170;2023-03-25T07:24:33;100020.75;;;9.45;76.91
76060;BME280;64759;52.220;5.170;2023-03-25T07:26:59;100029.25;;;9.38;76.77
76060;BME280;64759;52.220;5.170;2023-03-25T07:29:27;100021.34;;;9.39;76.87
76060;BME280;64759;52.220;5.170;2023-03-25T07:31:52;100019.53;;;9.32;76.91
76060;BME280;64759;52.220;5.170;2023-03-25T07:34:18;100027.88;;;9.51;76.17
76060;BME280;64759;52.220;5.170;2023-03-25T07:36:43;100017.81;;;9.74;75.49
76060;BME280;64759;52.220;5.170;2023-03-25T07:39:09;100014.53;;;9.64;75.07
76060;BME280;64759;52.220;5.170;2023-03-25T07:41:34;100026.66;;;9.63;75.02
76060;BME280;64759;52.220;5.170;2023-03-25T07:44:09;100034.19;;;9.82;74.26
76060;BME280;64759;52.220;5.170;2023-03-25T07:46:36;100028.97;;;9.74;74.55
76060;BME280;64759;52.220;5.170;2023-03-25T07:49:01;100019.44;;;9.75;74.14
76060;BME280;64759;52.220;5.170;2023-03-25T07:51:27;100032.16;;;9.68;74.94
76060;BME280;64759;52.220;5.170;2023-03-25T07:53:54;100037.19;;;9.70;73.68
76060;BME280;64759;52.220;5.170;2023-03-25T07:56:20;100035.91;;;9.74;74.21
76060;BME280;64759;52.220;5.170;2023-03-25T07:58:45;100027.03;;;9.76;74.24
76060;BME280;64759;52.220;5.170;2023-03-25T08:01:11;100035.09;;;9.65;73.88
76060;BME280;64759;52.220;5.170;2023-03-25T08:03:37;100036.59;;;9.84;73.52
76060;BME280;64759;52.220;5.170;2023-03-25T08:06:05;100038.72;;;9.88;73.67
76060;BME280;64759;52.220;5.170;2023-03-25T08:08:32;100042.13;;;9.89;73.40
76060;BME280;64759;52.220;5.170;2023-03-25T08:10:58;100035.88;;;10.00;72.68
76060;BME280;64759;52.220;5.170;2023-03-25T08:13:24;100041.94;;;9.82;73.34
76060;BME280;64759;52.220;5.170;2023-03-25T08:15:51;100056.22;;;9.95;73.68
76060;BME280;64759;52.220;5.170;2023-03-25T08:18:16;100049.78;;;9.73;75.07
76060;BME280;64759;52.220;5.170;2023-03-25T08:20:42;100064.31;;;9.66;75.94
76060;BME280;64759;52.220;5.170;2023-03-25T08:23:07;100052.34;;;9.65;76.14
76060;BME280;64759;52.220;5.170;2023-03-25T08:25:38;100066.81;;;9.50;76.34
76060;BME280;64759;52.220;5.170;2023-03-25T08:28:05;100066.22;;;9.64;76.16
76060;BME280;64759;52.220;5.170;2023-03-25T08:30:35;100054.97;;;9.73;76.31
76060;BME280;64759;52.220;5.170;2023-03-25T08:33:05;100057.72;;;9.71;75.46
76060;BME280;64759;52.220;5.170;2023-03-25T08:35:31;100060.81;;;9.75;75.90
76060;BME280;64759;52.220;5.170;2023-03-25T08:37:57;100068.41;;;9.76;76.36
76060;BME280;64759;52.220;5.170;2023-03-25T08:40:26;100063.19;;;9.68;76.46
76060;BME280;64759;52.220;5.170;2023-03-25T08:42:52;100064.00;;;9.69;76.62
76060;BME280;64759;52.220;5.170;2023-03-25T08:45:18;100065.16;;;9.74;76.21
76060;BME280;64759;52.220;5.170;2023-03-25T08:47:43;100061.47;;;9.77;75.88
76060;BME280;64759;52.220;5.170;2023-03-25T08:50:10;100061.16;;;9.80;75.33
76060;BME280;64759;52.220;5.170;2023-03-25T08:52:36;100064.28;;;9.92;75.85
76060;BME280;64759;52.220;5.170;2023-03-25T08:55:02;100069.28;;;10.19;74.23
76060;BME280;64759;52.220;5.170;2023-03-25T08:57:28;100063.31;;;10.34;74.38
76060;BME280;64759;52.220;5.170;2023-03-25T08:59:53;100074.50;;;10.35;72.97
76060;BME280;64759;52.220;5.170;2023-03-25T09:02:19;100076.94;;;10.36;73.42
76060;BME280;64759;52.220;5.170;2023-03-25T09:04:47;100071.75;;;10.44;72.81
76060;BME280;64759;52.220;5.170;2023-03-25T09:07:13;100073.25;;;10.55;72.02
76060;BME280;64759;52.220;5.170;2023-03-25T09:09:39;100071.47;;;10.56;72.42
76060;BME280;64759;52.220;5.170;2023-03-25T09:12:05;100065.66;;;10.62;71.39
76060;BME280;64759;52.220;5.170;2023-03-25T09:14:32;100060.00;;;10.66;71.85
76060;BME280;64759;52.220;5.170;2023-03-25T09:16:58;100060.34;;;10.79;71.82
76060;BME280;64759;52.220;5.170;2023-03-25T09:19:24;100065.84;;;10.84;70.92
76060;BME280;64759;52.220;5.170;2023-03-25T09:21:50;100076.84;;;10.78;71.63
76060;BME280;64759;52.220;5.170;2023-03-25T09:24:16;100073.13;;;10.97;70.15
76060;BME280;64759;52.220;5.170;2023-03-25T09:26:41;100070.88;;;11.02;70.52
76060;BME280;64759;52.220;5.170;2023-03-25T09:29:07;100074.28;;;11.02;70.29
76060;BME280;64759;52.220;5.170;2023-03-25T09:31:32;100082.19;;;11.01;70.63
76060;BME280;64759;52.220;5.170;2023-03-25T09:33:58;100081.72;;;10.97;70.18
76060;BME280;64759;52.220;5.170;2023-03-25T09:36:24;100084.47;;;10.88;70.01
76060;BME280;64759;52.220;5.170;2023-03-25T09:38:49;100099.34;;;10.94;70.26
76060;BME280;64759;52.220;5.170;2023-03-25T09:44:27;100100.34;;;10.93;70.52
76060;BME280;64759;52.220;5.170;2023-03-25T09:46:57;100091.25;;;10.89;70.87
76060;BME280;64759;52.220;5.170;2023-03-25T09:49:26;100097.75;;;10.93;70.11
76060;BME280;64759;52.220;5.170;2023-03-25T09:51:57;100093.22;;;11.03;69.57
76060;BME280;64759;52.220;5.170;2023-03-25T09:54:29;100094.84;;;11.04;69.24
76060;BME280;64759;52.220;5.170;2023-03-25T09:57:02;100101.97;;;10.86;70.27
76060;BME280;64759;52.220;5.170;2023-03-25T09:59:48;100090.94;;;10.92;70.18
76060;BME280;64759;52.220;5.170;2023-03-25T10:08:01;100112.47;;;11.33;69.58
76060;BME280;64759;52.220;5.170;2023-03-25T10:13:46;100125.94;;;11.36;69.00
76060;BME280;64759;52.220;5.170;2023-03-25T10:16:21;100122.19;;;11.31;69.45
76060;BME280;64759;52.220;5.170;2023-03-25T10:26:46;100119.97;;;11.28;67.09
76060;BME280;64759;52.220;5.170;2023-03-25T10:29:17;100126.41;;;11.56;66.69
76060;BME280;64759;52.220;5.170;2023-03-25T10:31:52;100132.72;;;11.61;66.43
76060;BME280;64759;52.220;5.170;2023-03-25T10:34:22;100134.69;;;11.59;67.07
76060;BME280;64759;52.220;5.170;2023-03-25T10:36:52;100129.81;;;11.56;66.82
76060;BME280;64759;52.220;5.170;2023-03-25T10:39:23;100127.53;;;11.53;66.82
76060;BME280;64759;52.220;5.170;2023-03-25T10:41:56;100123.66;;;11.41;67.34
76060;BME280;64759;52.220;5.170;2023-03-25T10:44:25;100131.75;;;11.46;66.67
76060;BME280;64759;52.220;5.170;2023-03-25T10:46:57;100112.16;;;11.44;66.38
76060;BME280;64759;52.220;5.170;2023-03-25T10:49:27;100134.81;;;11.58;66.50
76060;BME280;64759;52.220;5.170;2023-03-25T10:51:53;100134.00;;;11.65;66.16
76060;BME280;64759;52.220;5.170;2023-03-25T10:54:24;100140.50;;;11.61;65.54
76060;BME280;64759;52.220;5.170;2023-03-25T10:56:51;100135.00;;;11.80;65.89
76060;BME280;64759;52.220;5.170;2023-03-25T11:00:22;100131.00;;;12.17;65.35
76060;BME280;64759;52.220;5.170;2023-03-25T11:02:25;100135.00;;;12.35;63.78
76060;BME280;64759;52.220;5.170;2023-03-25T11:04:55;100148.28;;;12.40;63.83
76060;BME280;64759;52.220;5.170;2023-03-25T11:07:26;100142.31;;;12.24;64.61
76060;BME280;64759;52.220;5.170;2023-03-25T11:10:07;100136.75;;;11.96;64.88
76060;BME280;64759;52.220;5.170;2023-03-25T11:12:33;100143.72;;;11.88;65.00
76060;BME280;64759;52.220;5.170;2023-03-25T11:14:58;100141.56;;;11.99;65.00
76060;BME280;64759;52.220;5.170;2023-03-25T11:17:26;100134.41;;;12.09;64.90
76060;BME280;64759;52.220;5.170;2023-03-25T11:19:58;100178.19;;;12.20;63.86
76060;BME280;64759;52.220;5.170;2023-03-25T11:22:35;100160.56;;;12.00;63.95
76060;BME280;64759;52.220;5.170;2023-03-25T11:25:25;100152.63;;;12.01;64.34
76060;BME280;64759;52.220;5.170;2023-03-25T11:27:57;100158.75;;;12.08;63.91
76060;BME280;64759;52.220;5.170;2023-03-25T11:30:24;100133.59;;;12.17;63.50
76060;BME280;64759;52.220;5.170;2023-03-25T11:33:12;100147.03;;;12.28;63.09
76060;BME280;64759;52.220;5.170;2023-03-25T11:35:42;100160.03;;;12.20;63.42
76060;BME280;64759;52.220;5.170;2023-03-25T11:38:22;100155.69;;;12.05;63.80
76060;BME280;64759;52.220;5.170;2023-03-25T11:40:55;100152.44;;;12.11;64.14
76060;BME280;64759;52.220;5.170;2023-03-25T11:43:23;100158.28;;;12.52;63.30
76060;BME280;64759;52.220;5.170;2023-03-25T11:45:50;100145.69;;;12.40;62.43
76060;BME280;64759;52.220;5.170;2023-03-25T11:48:20;100136.78;;;12.27;62.77
76060;BME280;64759;52.220;5.170;2023-03-25T11:50:54;100147.78;;;12.37;63.08
76060;BME280;64759;52.220;5.170;2023-03-25T11:53:24;100161.50;;;12.15;62.99
76060;BME280;64759;52.220;5.170;2023-03-25T11:55:52;100189.28;;;12.06;63.63
76060;BME280;64759;52.220;5.170;2023-03-25T11:58:22;100157.63;;;12.11;63.34
76060;BME280;64759;52.220;5.170;2023-03-25T12:00:53;100151.81;;;11.93;64.04
76060;BME280;64759;52.220;5.170;2023-03-25T12:03:27;100165.28;;;11.88;64.87
76060;BME280;64759;52.220;5.170;2023-03-25T12:06:03;100143.59;;;11.81;65.25
76060;BME280;64759;52.220;5.170;2023-03-25T12:08:57;100123.34;;;11.76;64.83
76060;BME280;64759;52.220;5.170;2023-03-25T12:11:53;100158.97;;;11.91;65.46
76060;BME280;64759;52.220;5.170;2023-03-25T12:14:51;100162.00;;;12.10;64.10
76060;BME280;64759;52.220;5.170;2023-03-25T12:20:22;100157.16;;;12.46;62.81
76060;BME280;64759;52.220;5.170;2023-03-25T12:23:00;100157.88;;;12.32;63.40
76060;BME280;64759;52.220;5.170;2023-03-25T12:28:26;100150.06;;;12.32;63.07
76060;BME280;64759;52.220;5.170;2023-03-25T12:36:52;100157.06;;;12.31;62.30
76060;BME280;64759;52.220;5.170;2023-03-25T12:42:22;100164.38;;;12.28;62.87
76060;BME280;64759;52.220;5.170;2023-03-25T12:47:41;100149.72;;;13.04;60.83
76060;BME280;64759;52.220;5.170;2023-03-25T13:04:08;100144.72;;;13.77;58.34
76060;BME280;64759;52.220;5.170;2023-03-25T13:09:53;100163.09;;;13.76;57.92
76060;BME280;64759;52.220;5.170;2023-03-25T13:12:33;100175.13;;;13.40;58.75
76060;BME280;64759;52.220;5.170;2023-03-25T13:15:16;100172.88;;;13.37;58.38
76060;BME280;64759;52.220;5.170;2023-03-25T13:17:46;100157.00;;;13.69;57.24
76060;BME280;64759;52.220;5.170;2023-03-25T13:20:13;100181.84;;;13.71;56.96
76060;BME280;64759;52.220;5.170;2023-03-25T13:22:45;100178.53;;;13.63;58.16
76060;BME280;64759;52.220;5.170;2023-03-25T13:25:19;100179.53;;;13.76;58.14
76060;BME280;64759;52.220;5.170;2023-03-25T13:27:46;100186.31;;;13.63;57.55
76060;BME280;64759;52.220;5.170;2023-03-25T13:30:20;100189.28;;;13.37;58.77
76060;BME280;64759;52.220;5.170;2023-03-25T13:32:52;100197.06;;;13.15;59.06
76060;BME280;64759;52.220;5.170;2023-03-25T13:37:57;100202.75;;;12.87;59.64
76060;BME280;64759;52.220;5.170;2023-03-25T13:43:20;100186.59;;;12.30;60.75
76060;BME280;64759;52.220;5.170;2023-03-25T13:45:55;100182.03;;;12.32;61.14
76060;BME280;64759;52.220;5.170;2023-03-25T13:48:37;100196.00;;;12.31;62.14
76060;BME280;64759;52.220;5.170;2023-03-25T13:51:06;100191.94;;;12.29;61.78
76060;BME280;64759;52.220;5.170;2023-03-25T13:53:54;100195.78;;;12.41;61.06
76060;BME280;64759;52.220;5.170;2023-03-25T13:56:57;100207.81;;;12.34;59.89
76060;BME280;64759;52.220;5.170;2023-03-25T13:59:53;100193.88;;;12.35;61.16
76060;BME280;64759;52.220;5.170;2023-03-25T14:02:38;100222.00;;;11.99;63.03
76060;BME280;64759;52.220;5.170;2023-03-25T14:10:49;100236.13;;;11.97;64.98
76060;BME280;64759;52.220;5.170;2023-03-25T14:13:40;100224.41;;;12.25;63.64
76060;BME280;64759;52.220;5.170;2023-03-25T14:16:13;100228.91;;;12.39;62.42
76060;BME280;64759;52.220;5.170;2023-03-25T14:18:42;100220.63;;;12.43;62.22
76060;BME280;64759;52.220;5.170;2023-03-25T14:21:39;100236.88;;;12.37;63.29
76060;BME280;64759;52.220;5.170;2023-03-25T14:24:50;100237.94;;;12.59;63.53
76060;BME280;64759;52.220;5.170;2023-03-25T14:27:05;100232.63;;;12.53;64.32
76060;BME280;64759;52.220;5.170;2023-03-25T14:34:30;100237.66;;;12.46;65.86
76060;BME280;64759;52.220;5.170;2023-03-25T14:42:10;100248.78;;;12.08;64.25
76060;BME280;64759;52.220;5.170;2023-03-25T14:44:43;100232.56;;;12.06;64.35
76060;BME280;64759;52.220;5.170;2023-03-25T14:52:41;100267.91;;;11.82;66.38
76060;BME280;64759;52.220;5.170;2023-03-25T14:55:16;100240.69;;;11.70;67.29
76060;BME280;64759;52.220;5.170;2023-03-25T14:57:43;100247.13;;;11.58;68.35
76060;BME280;64759;52.220;5.170;2023-03-25T15:00:18;100246.31;;;11.58;68.59
76060;BME280;64759;52.220;5.170;2023-03-25T15:02:50;100246.16;;;11.51;68.22
76060;BME280;64759;52.220;5.170;2023-03-25T15:05:22;100279.78;;;11.19;68.97
76060;BME280;64759;52.220;5.170;2023-03-25T15:07:58;100333.38;;;10.25;73.66
76060;BME280;64759;52.220;5.170;2023-03-25T15:26:26;100361.94;;;8.62;78.36
76060;BME280;64759;52.220;5.170;2023-03-25T15:34:51;100365.75;;;8.39;80.49
76060;BME280;64759;52.220;5.170;2023-03-25T15:40:29;100355.19;;;8.32;81.51